Disclaimer

    

CYCD

METAR CYCD 081900Z CCA VRB07KT 30SM FEW023 BKN220 08/01 A3001 RMK CF1CI7 CF TR SLP163=

METAR CYCD 081900Z VRB07KT 25SM FEW023 BKN220 08/01 A3001 RMK CF1CI7 CF TR SLP163=

METAR CYCD 081800Z 17006KT 130V190 30SM FEW021 BKN040 BKN170 07/01 A3003 RMK SC1SC4AC2 SLP170=

METAR CYCD 081700Z 13003KT 25SM FEW020 BKN041 BKN170 06/01 A3003 RMK SC2SC3AC2 SLP173=

TAF CYCD 081742Z 0818/0905 VRB03KT P6SM SCT020 SCT040 BKN250 TEMPO 0818/0820 BKN015 BKN030
FM082000 VRB03KT P6SM SCT150 BECMG 0903/0905 BKN080 RMK NXT FCST BY 090000Z=

CYVR

METAR CYVR 081900Z 23006KT 210V280 20SM FEW120 BKN180 BKN260 07/03 A3001 RMK AC1AC4CI2 SLP164=

METAR CYVR 081800Z VRB05KT 20SM FEW150 BKN180 BKN210 BKN260 06/01 A3002 RMK AS2AC3CS1CI1 SLP168=

METAR CYVR 081700Z 12003KT 070V140 20SM FEW120 BKN180 BKN210 BKN260 06/02 A3003 RMK AC1AC4CI1CI1 SLP171=

TAF CYVR 081742Z 0818/0924 VRB03KT P6SM SCT120 BKN200 BECMG 0818/0820 29006KT
FM082000 29006KT P6SM SCT180 SCT250 BECMG 0904/0906 09008KT
FM090800 09010KT P6SM SCT015 BKN100
FM091000 09010KT P6SM SCT020 BKN040 TEMPO 0910/0915 5SM -SHRA BR BKN015
FM091500 08006KT P6SM SCT025 SCT060
FM092000 10010KT P6SM SCT040 SCT090 TEMPO 0920/0924 BKN040 BKN090 BECMG 0922/0924 16008KT RMK NXT FCST BY 082100Z=

CYXX

METAR CYXX 081900Z 09010KT 30SM BKN220 09/M01 A3000 RMK CI6 SLP161=

METAR CYXX 081800Z 08011G17KT 30SM BKN220 07/M01 A3002 RMK CI5 SLP168=

METAR CYXX 081700Z 01005KT 30SM BKN220 06/01 A3002 RMK CI6 SLP170=

TAF CYXX 081742Z 0818/0918 VRB03KT P6SM BKN200
FM090100 VRB03KT P6SM SCT012 SCT150 TEMPO 0901/0918 BKN012 BKN150 BECMG 0913/0915 05008KT RMK NXT FCST BY 090000Z=

Supplemental information

Lower mainland ATIS: 1-877-517-2847

CZBB (Boundary Bay) current winds

Upper winds (Vancouver)

Data fromValid at300060009000
08120008180010141417-051517-11
08120009000014121419-041620-11
08120009120014221322-061414-12

NOTAMs

On October 10, 2019, NAV CANADA changed to the ICAO NOTAM format. They are now available only through Collaborative Flight Planning Services (CFPS) (plan.navcanada.ca). I'm working to update this site to pull in the relevant NOTAMs in the new format.